sensor_id;sensor_type;location;lat;lon;timestamp;temperature;humidity
46676;DHT22;32412;51.478;5.694;2023-02-02T00:01:09;8.30;99.90
46676;DHT22;32412;51.478;5.694;2023-02-02T00:03:34;8.30;99.90
46676;DHT22;32412;51.478;5.694;2023-02-02T00:06:01;8.30;99.90
46676;DHT22;32412;51.478;5.694;2023-02-02T00:08:28;8.20;99.90
46676;DHT22;32412;51.478;5.694;2023-02-02T00:10:54;8.20;99.90
46676;DHT22;32412;51.478;5.694;2023-02-02T00:13:20;8.20;99.90
46676;DHT22;32412;51.478;5.694;2023-02-02T00:15:46;8.10;99.90
46676;DHT22;32412;51.478;5.694;2023-02-02T00:18:11;8.10;99.90
46676;DHT22;32412;51.478;5.694;2023-02-02T00:20:37;8.10;99.90
46676;DHT22;32412;51.478;5.694;2023-02-02T00:23:03;8.10;99.90
46676;DHT22;32412;51.478;5.694;2023-02-02T00:25:28;8.10;99.90
46676;DHT22;32412;51.478;5.694;2023-02-02T00:27:54;8.10;99.90
46676;DHT22;32412;51.478;5.694;2023-02-02T00:30:20;8.10;99.90
46676;DHT22;32412;51.478;5.694;2023-02-02T00:32:45;8.20;99.90
46676;DHT22;32412;51.478;5.694;2023-02-02T00:35:15;8.20;99.90
46676;DHT22;32412;51.478;5.694;2023-02-02T00:37:41;8.20;99.90
46676;DHT22;32412;51.478;5.694;2023-02-02T00:40:08;8.20;99.90
46676;DHT22;32412;51.478;5.694;2023-02-02T00:42:34;8.20;99.90
46676;DHT22;32412;51.478;5.694;2023-02-02T00:45:00;8.30;99.90
46676;DHT22;32412;51.478;5.694;2023-02-02T00:47:45;8.30;99.90
46676;DHT22;32412;51.478;5.694;2023-02-02T00:50:17;8.30;99.90
46676;DHT22;32412;51.478;5.694;2023-02-02T00:52:44;8.30;99.90
46676;DHT22;32412;51.478;5.694;2023-02-02T00:55:10;8.30;99.90
46676;DHT22;32412;51.478;5.694;2023-02-02T00:57:36;8.40;99.90
46676;DHT22;32412;51.478;5.694;2023-02-02T01:00:04;8.30;99.90
46676;DHT22;32412;51.478;5.694;2023-02-02T01:02:32;8.40;99.90
46676;DHT22;32412;51.478;5.694;2023-02-02T01:04:58;8.40;99.90
46676;DHT22;32412;51.478;5.694;2023-02-02T01:07:24;8.30;99.90
46676;DHT22;32412;51.478;5.694;2023-02-02T01:09:49;8.30;99.90
46676;DHT22;32412;51.478;5.694;2023-02-02T01:12:15;8.40;99.90
46676;DHT22;32412;51.478;5.694;2023-02-02T01:14:41;8.40;99.90
46676;DHT22;32412;51.478;5.694;2023-02-02T01:17:06;8.40;99.90
46676;DHT22;32412;51.478;5.694;2023-02-02T01:19:32;8.40;99.90
46676;DHT22;32412;51.478;5.694;2023-02-02T01:21:58;8.40;99.90
46676;DHT22;32412;51.478;5.694;2023-02-02T01:24:24;8.50;99.90
46676;DHT22;32412;51.478;5.694;2023-02-02T01:26:50;8.40;99.90
46676;DHT22;32412;51.478;5.694;2023-02-02T01:29:15;8.50;99.90
46676;DHT22;32412;51.478;5.694;2023-02-02T01:31:41;8.50;99.90
46676;DHT22;32412;51.478;5.694;2023-02-02T01:34:07;8.50;99.90
46676;DHT22;32412;51.478;5.694;2023-02-02T01:36:33;8.50;99.90
46676;DHT22;32412;51.478;5.694;2023-02-02T01:38:59;8.50;99.90
46676;DHT22;32412;51.478;5.694;2023-02-02T01:41:25;8.50;99.90
46676;DHT22;32412;51.478;5.694;2023-02-02T01:44:05;8.50;99.90
46676;DHT22;32412;51.478;5.694;2023-02-02T01:46:33;8.50;99.90
46676;DHT22;32412;51.478;5.694;2023-02-02T01:49:17;8.50;99.90
46676;DHT22;32412;51.478;5.694;2023-02-02T01:51:51;8.50;99.90
46676;DHT22;32412;51.478;5.694;2023-02-02T01:54:26;8.50;99.90
46676;DHT22;32412;51.478;5.694;2023-02-02T01:56:59;8.50;99.90
46676;DHT22;32412;51.478;5.694;2023-02-02T01:59:27;8.50;99.90
46676;DHT22;32412;51.478;5.694;2023-02-02T02:01:55;8.50;99.90
46676;DHT22;32412;51.478;5.694;2023-02-02T02:04:21;8.50;99.90
46676;DHT22;32412;51.478;5.694;2023-02-02T02:06:48;8.50;99.90
46676;DHT22;32412;51.478;5.694;2023-02-02T02:09:16;8.50;99.90
46676;DHT22;32412;51.478;5.694;2023-02-02T02:11:42;8.50;99.90
46676;DHT22;32412;51.478;5.694;2023-02-02T02:14:11;8.50;99.90
46676;DHT22;32412;51.478;5.694;2023-02-02T02:22:26;8.50;99.90
46676;DHT22;32412;51.478;5.694;2023-02-02T02:36:47;8.40;99.90
46676;DHT22;32412;51.478;5.694;2023-02-02T02:39:33;8.40;99.90
46676;DHT22;32412;51.478;5.694;2023-02-02T02:42:09;8.50;99.90
46676;DHT22;32412;51.478;5.694;2023-02-02T02:44:36;8.40;99.90
46676;DHT22;32412;51.478;5.694;2023-02-02T02:47:03;8.50;99.90
46676;DHT22;32412;51.478;5.694;2023-02-02T02:49:28;8.50;99.90
46676;DHT22;32412;51.478;5.694;2023-02-02T02:51:55;8.50;99.90
46676;DHT22;32412;51.478;5.694;2023-02-02T02:54:24;8.50;99.90
46676;DHT22;32412;51.478;5.694;2023-02-02T03:03:00;8.40;99.90
46676;DHT22;32412;51.478;5.694;2023-02-02T03:08:30;8.40;99.90
46676;DHT22;32412;51.478;5.694;2023-02-02T03:10:58;8.40;99.90
46676;DHT22;32412;51.478;5.694;2023-02-02T03:13:25;8.40;99.90
46676;DHT22;32412;51.478;5.694;2023-02-02T03:15:51;8.40;99.90
46676;DHT22;32412;51.478;5.694;2023-02-02T03:18:20;8.40;99.90
46676;DHT22;32412;51.478;5.694;2023-02-02T03:20:46;8.40;99.90
46676;DHT22;32412;51.478;5.694;2023-02-02T03:23:13;8.40;99.90
46676;DHT22;32412;51.478;5.694;2023-02-02T03:25:38;8.30;99.90
46676;DHT22;32412;51.478;5.694;2023-02-02T03:28:05;8.30;99.90
46676;DHT22;32412;51.478;5.694;2023-02-02T03:30:31;8.30;99.90
46676;DHT22;32412;51.478;5.694;2023-02-02T03:32:57;8.30;99.90
46676;DHT22;32412;51.478;5.694;2023-02-02T03:35:23;8.20;99.90
46676;DHT22;32412;51.478;5.694;2023-02-02T03:37:51;8.20;99.90
46676;DHT22;32412;51.478;5.694;2023-02-02T03:40:17;8.20;99.90
46676;DHT22;32412;51.478;5.694;2023-02-02T03:42:42;8.20;99.90
46676;DHT22;32412;51.478;5.694;2023-02-02T03:45:08;8.20;99.90
46676;DHT22;32412;51.478;5.694;2023-02-02T03:47:34;8.20;99.90
46676;DHT22;32412;51.478;5.694;2023-02-02T03:50:00;8.10;99.90
46676;DHT22;32412;51.478;5.694;2023-02-02T03:52:26;8.20;99.90
46676;DHT22;32412;51.478;5.694;2023-02-02T03:54:51;8.20;99.90
46676;DHT22;32412;51.478;5.694;2023-02-02T03:57:18;8.20;99.90
46676;DHT22;32412;51.478;5.694;2023-02-02T03:59:43;8.20;99.90
46676;DHT22;32412;51.478;5.694;2023-02-02T04:02:09;8.20;99.90
46676;DHT22;32412;51.478;5.694;2023-02-02T04:04:35;8.20;99.90
46676;DHT22;32412;51.478;5.694;2023-02-02T04:07:00;8.30;99.90
46676;DHT22;32412;51.478;5.694;2023-02-02T04:09:26;8.30;99.90
46676;DHT22;32412;51.478;5.694;2023-02-02T04:11:52;8.20;99.90
46676;DHT22;32412;51.478;5.694;2023-02-02T04:14:18;8.20;99.90
46676;DHT22;32412;51.478;5.694;2023-02-02T04:16:44;8.20;99.90
46676;DHT22;32412;51.478;5.694;2023-02-02T04:19:10;8.20;99.90
46676;DHT22;32412;51.478;5.694;2023-02-02T04:21:37;8.30;99.90
46676;DHT22;32412;51.478;5.694;2023-02-02T04:24:04;8.30;99.90
46676;DHT22;32412;51.478;5.694;2023-02-02T04:26:30;8.30;99.90
46676;DHT22;32412;51.478;5.694;2023-02-02T04:28:56;8.20;99.90
46676;DHT22;32412;51.478;5.694;2023-02-02T04:31:21;8.30;99.90
46676;DHT22;32412;51.478;5.694;2023-02-02T04:33:47;8.30;99.90
46676;DHT22;32412;51.478;5.694;2023-02-02T04:36:13;8.30;99.90
46676;DHT22;32412;51.478;5.694;2023-02-02T04:38:39;8.30;99.90
46676;DHT22;32412;51.478;5.694;2023-02-02T04:41:10;8.30;99.90
46676;DHT22;32412;51.478;5.694;2023-02-02T04:43:36;8.30;99.90
46676;DHT22;32412;51.478;5.694;2023-02-02T04:46:03;8.30;99.90
46676;DHT22;32412;51.478;5.694;2023-02-02T04:48:29;8.20;99.90
46676;DHT22;32412;51.478;5.694;2023-02-02T04:51:03;8.30;99.90
46676;DHT22;32412;51.478;5.694;2023-02-02T04:53:30;8.30;99.90
46676;DHT22;32412;51.478;5.694;2023-02-02T04:55:55;8.30;99.90
46676;DHT22;32412;51.478;5.694;2023-02-02T04:58:21;8.30;99.90
46676;DHT22;32412;51.478;5.694;2023-02-02T05:00:47;8.30;99.90
46676;DHT22;32412;51.478;5.694;2023-02-02T05:03:12;8.30;99.90
46676;DHT22;32412;51.478;5.694;2023-02-02T05:05:38;8.30;99.90
46676;DHT22;32412;51.478;5.694;2023-02-02T05:08:04;8.30;99.90
46676;DHT22;32412;51.478;5.694;2023-02-02T05:10:30;8.30;99.90
46676;DHT22;32412;51.478;5.694;2023-02-02T05:12:56;8.20;99.90
46676;DHT22;32412;51.478;5.694;2023-02-02T05:15:22;8.30;99.90
46676;DHT22;32412;51.478;5.694;2023-02-02T05:17:48;8.30;99.90
46676;DHT22;32412;51.478;5.694;2023-02-02T05:20:14;8.20;99.90
46676;DHT22;32412;51.478;5.694;2023-02-02T05:22:40;8.30;99.90
46676;DHT22;32412;51.478;5.694;2023-02-02T05:25:07;8.30;99.90
46676;DHT22;32412;51.478;5.694;2023-02-02T05:27:33;8.30;99.90
46676;DHT22;32412;51.478;5.694;2023-02-02T05:29:59;8.30;99.90
46676;DHT22;32412;51.478;5.694;2023-02-02T05:32:25;8.30;99.90
46676;DHT22;32412;51.478;5.694;2023-02-02T05:34:53;8.30;99.90
46676;DHT22;32412;51.478;5.694;2023-02-02T05:37:18;8.30;99.90
46676;DHT22;32412;51.478;5.694;2023-02-02T05:39:44;8.40;99.90
46676;DHT22;32412;51.478;5.694;2023-02-02T05:42:10;8.30;99.90
46676;DHT22;32412;51.478;5.694;2023-02-02T05:44:35;8.30;99.90
46676;DHT22;32412;51.478;5.694;2023-02-02T05:47:01;8.30;99.90
46676;DHT22;32412;51.478;5.694;2023-02-02T05:49:27;8.30;99.90
46676;DHT22;32412;51.478;5.694;2023-02-02T05:51:58;8.30;99.90
46676;DHT22;32412;51.478;5.694;2023-02-02T05:54:25;8.30;99.90
46676;DHT22;32412;51.478;5.694;2023-02-02T05:56:52;8.30;99.90
46676;DHT22;32412;51.478;5.694;2023-02-02T05:59:19;8.40;99.90
46676;DHT22;32412;51.478;5.694;2023-02-02T06:01:46;8.40;99.90
46676;DHT22;32412;51.478;5.694;2023-02-02T06:04:12;8.30;99.90
46676;DHT22;32412;51.478;5.694;2023-02-02T06:06:38;8.40;99.90
46676;DHT22;32412;51.478;5.694;2023-02-02T06:09:07;8.30;99.90
46676;DHT22;32412;51.478;5.694;2023-02-02T06:11:33;8.30;99.90
46676;DHT22;32412;51.478;5.694;2023-02-02T06:13:59;8.30;99.90
46676;DHT22;32412;51.478;5.694;2023-02-02T06:16:27;8.30;99.90
46676;DHT22;32412;51.478;5.694;2023-02-02T06:18:53;8.40;99.90
46676;DHT22;32412;51.478;5.694;2023-02-02T06:21:19;8.30;99.90
46676;DHT22;32412;51.478;5.694;2023-02-02T06:23:47;8.40;99.90
46676;DHT22;32412;51.478;5.694;2023-02-02T06:26:17;8.40;99.90
46676;DHT22;32412;51.478;5.694;2023-02-02T06:28:46;8.40;99.90
46676;DHT22;32412;51.478;5.694;2023-02-02T06:31:12;8.40;99.90
46676;DHT22;32412;51.478;5.694;2023-02-02T06:33:38;8.40;99.90
46676;DHT22;32412;51.478;5.694;2023-02-02T06:36:05;8.40;99.90
46676;DHT22;32412;51.478;5.694;2023-02-02T06:38:40;8.30;99.90
46676;DHT22;32412;51.478;5.694;2023-02-02T06:41:06;8.30;99.90
46676;DHT22;32412;51.478;5.694;2023-02-02T06:43:32;8.40;99.90
46676;DHT22;32412;51.478;5.694;2023-02-02T06:45:57;8.40;99.90
46676;DHT22;32412;51.478;5.694;2023-02-02T06:48:23;8.30;99.90
46676;DHT22;32412;51.478;5.694;2023-02-02T06:50:49;8.30;99.90
46676;DHT22;32412;51.478;5.694;2023-02-02T06:53:15;8.30;99.90
46676;DHT22;32412;51.478;5.694;2023-02-02T06:55:54;8.30;99.90
46676;DHT22;32412;51.478;5.694;2023-02-02T06:58:20;8.30;99.90
46676;DHT22;32412;51.478;5.694;2023-02-02T07:00:46;8.30;99.90
46676;DHT22;32412;51.478;5.694;2023-02-02T07:03:13;8.30;99.90
46676;DHT22;32412;51.478;5.694;2023-02-02T07:05:39;8.30;99.90
46676;DHT22;32412;51.478;5.694;2023-02-02T07:08:04;8.20;99.90
46676;DHT22;32412;51.478;5.694;2023-02-02T07:10:30;8.30;99.90
46676;DHT22;32412;51.478;5.694;2023-02-02T07:12:56;8.30;99.90
46676;DHT22;32412;51.478;5.694;2023-02-02T07:15:21;8.30;99.90
46676;DHT22;32412;51.478;5.694;2023-02-02T07:17:47;8.20;99.90
46676;DHT22;32412;51.478;5.694;2023-02-02T07:20:13;8.10;99.90
46676;DHT22;32412;51.478;5.694;2023-02-02T07:22:39;8.10;99.90
46676;DHT22;32412;51.478;5.694;2023-02-02T07:25:07;8.10;99.90
46676;DHT22;32412;51.478;5.694;2023-02-02T07:27:33;8.10;99.90
46676;DHT22;32412;51.478;5.694;2023-02-02T07:29:59;8.10;99.90
46676;DHT22;32412;51.478;5.694;2023-02-02T07:32:24;8.10;99.90
46676;DHT22;32412;51.478;5.694;2023-02-02T07:34:50;8.10;99.90
46676;DHT22;32412;51.478;5.694;2023-02-02T07:37:16;8.10;99.90
46676;DHT22;32412;51.478;5.694;2023-02-02T07:39:41;8.10;99.90
46676;DHT22;32412;51.478;5.694;2023-02-02T07:42:11;8.00;99.90
46676;DHT22;32412;51.478;5.694;2023-02-02T07:44:37;8.00;99.90
46676;DHT22;32412;51.478;5.694;2023-02-02T07:47:03;8.00;99.90
46676;DHT22;32412;51.478;5.694;2023-02-02T07:49:29;7.90;99.90
46676;DHT22;32412;51.478;5.694;2023-02-02T07:51:54;7.90;99.90
46676;DHT22;32412;51.478;5.694;2023-02-02T07:54:20;7.90;99.90
46676;DHT22;32412;51.478;5.694;2023-02-02T07:56:46;7.90;99.90
46676;DHT22;32412;51.478;5.694;2023-02-02T07:59:11;7.90;99.90
46676;DHT22;32412;51.478;5.694;2023-02-02T08:01:37;7.90;99.90
46676;DHT22;32412;51.478;5.694;2023-02-02T08:04:03;7.90;99.90
46676;DHT22;32412;51.478;5.694;2023-02-02T08:06:32;7.90;99.90
46676;DHT22;32412;51.478;5.694;2023-02-02T08:08:59;7.90;99.90
46676;DHT22;32412;51.478;5.694;2023-02-02T08:11:26;7.90;99.90
46676;DHT22;32412;51.478;5.694;2023-02-02T08:13:57;8.00;99.90
46676;DHT22;32412;51.478;5.694;2023-02-02T08:16:24;8.00;99.90
46676;DHT22;32412;51.478;5.694;2023-02-02T08:18:50;8.00;99.90
46676;DHT22;32412;51.478;5.694;2023-02-02T08:21:16;8.00;99.90
46676;DHT22;32412;51.478;5.694;2023-02-02T08:23:43;8.10;99.90
46676;DHT22;32412;51.478;5.694;2023-02-02T08:26:27;8.10;99.90
46676;DHT22;32412;51.478;5.694;2023-02-02T08:28:55;8.20;99.90
46676;DHT22;32412;51.478;5.694;2023-02-02T08:31:30;8.20;99.90
46676;DHT22;32412;51.478;5.694;2023-02-02T08:33:57;8.20;99.90
46676;DHT22;32412;51.478;5.694;2023-02-02T08:36:24;8.20;99.90
46676;DHT22;32412;51.478;5.694;2023-02-02T08:38:51;8.20;99.90
46676;DHT22;32412;51.478;5.694;2023-02-02T08:41:19;8.20;99.90
46676;DHT22;32412;51.478;5.694;2023-02-02T08:43:45;8.20;99.90
46676;DHT22;32412;51.478;5.694;2023-02-02T08:46:13;8.30;99.90
46676;DHT22;32412;51.478;5.694;2023-02-02T08:48:38;8.30;99.90
46676;DHT22;32412;51.478;5.694;2023-02-02T08:51:05;8.30;99.90
46676;DHT22;32412;51.478;5.694;2023-02-02T08:53:31;8.40;99.90
46676;DHT22;32412;51.478;5.694;2023-02-02T08:56:02;8.30;99.90
46676;DHT22;32412;51.478;5.694;2023-02-02T08:58:29;8.30;99.90
46676;DHT22;32412;51.478;5.694;2023-02-02T09:01:05;8.30;99.90
46676;DHT22;32412;51.478;5.694;2023-02-02T09:03:31;8.30;99.90
46676;DHT22;32412;51.478;5.694;2023-02-02T09:05:56;8.30;99.90
46676;DHT22;32412;51.478;5.694;2023-02-02T09:08:22;8.30;99.90
46676;DHT22;32412;51.478;5.694;2023-02-02T09:10:48;8.30;99.90
46676;DHT22;32412;51.478;5.694;2023-02-02T09:13:13;8.40;99.90
46676;DHT22;32412;51.478;5.694;2023-02-02T09:15:39;8.30;99.90
46676;DHT22;32412;51.478;5.694;2023-02-02T09:18:05;8.40;99.90
46676;DHT22;32412;51.478;5.694;2023-02-02T09:20:30;8.40;99.90
46676;DHT22;32412;51.478;5.694;2023-02-02T09:22:56;8.50;99.90
46676;DHT22;32412;51.478;5.694;2023-02-02T09:25:23;8.40;99.90
46676;DHT22;32412;51.478;5.694;2023-02-02T09:27:49;8.50;99.90
46676;DHT22;32412;51.478;5.694;2023-02-02T09:30:15;8.50;99.90
46676;DHT22;32412;51.478;5.694;2023-02-02T09:32:42;8.50;99.90
46676;DHT22;32412;51.478;5.694;2023-02-02T09:35:07;8.50;99.90
46676;DHT22;32412;51.478;5.694;2023-02-02T09:37:33;8.60;99.90
46676;DHT22;32412;51.478;5.694;2023-02-02T09:39:59;8.70;99.90
46676;DHT22;32412;51.478;5.694;2023-02-02T09:42:55;8.70;99.90
46676;DHT22;32412;51.478;5.694;2023-02-02T09:45:46;8.70;99.90
46676;DHT22;32412;51.478;5.694;2023-02-02T09:50:48;8.80;99.90
46676;DHT22;32412;51.478;5.694;2023-02-02T09:55:47;8.90;99.90
46676;DHT22;32412;51.478;5.694;2023-02-02T10:01:09;9.00;99.90
46676;DHT22;32412;51.478;5.694;2023-02-02T10:09:21;9.20;99.90
46676;DHT22;32412;51.478;5.694;2023-02-02T10:15:05;9.20;99.90
46676;DHT22;32412;51.478;5.694;2023-02-02T10:17:54;9.20;99.90
46676;DHT22;32412;51.478;5.694;2023-02-02T10:20:42;9.20;99.90
46676;DHT22;32412;51.478;5.694;2023-02-02T10:23:32;9.20;99.90
46676;DHT22;32412;51.478;5.694;2023-02-02T10:34:47;9.10;99.90
46676;DHT22;32412;51.478;5.694;2023-02-02T10:45:38;9.00;99.90
46676;DHT22;32412;51.478;5.694;2023-02-02T10:48:16;9.10;99.90
46676;DHT22;32412;51.478;5.694;2023-02-02T10:50:47;9.10;99.90
46676;DHT22;32412;51.478;5.694;2023-02-02T10:53:15;9.20;99.90
46676;DHT22;32412;51.478;5.694;2023-02-02T10:55:57;9.20;99.90
46676;DHT22;32412;51.478;5.694;2023-02-02T10:58:31;9.30;99.90
46676;DHT22;32412;51.478;5.694;2023-02-02T11:00:59;9.30;99.90
46676;DHT22;32412;51.478;5.694;2023-02-02T11:03:30;9.30;99.90
46676;DHT22;32412;51.478;5.694;2023-02-02T11:05:57;9.30;99.90
46676;DHT22;32412;51.478;5.694;2023-02-02T11:08:45;9.30;99.90
46676;DHT22;32412;51.478;5.694;2023-02-02T11:11:26;9.50;99.90
46676;DHT22;32412;51.478;5.694;2023-02-02T11:16:39;9.50;99.90
46676;DHT22;32412;51.478;5.694;2023-02-02T11:21:48;9.40;99.90
46676;DHT22;32412;51.478;5.694;2023-02-02T11:24:22;9.50;99.90
46676;DHT22;32412;51.478;5.694;2023-02-02T11:29:32;9.60;99.90
46676;DHT22;32412;51.478;5.694;2023-02-02T11:32:29;9.60;99.90
46676;DHT22;32412;51.478;5.694;2023-02-02T11:37:35;9.60;99.90
46676;DHT22;32412;51.478;5.694;2023-02-02T11:40:30;9.60;99.90
46676;DHT22;32412;51.478;5.694;2023-02-02T11:42:58;9.50;99.90
46676;DHT22;32412;51.478;5.694;2023-02-02T11:45:39;9.50;99.90
46676;DHT22;32412;51.478;5.694;2023-02-02T11:48:15;9.50;99.90
46676;DHT22;32412;51.478;5.694;2023-02-02T11:50:50;9.50;99.90
46676;DHT22;32412;51.478;5.694;2023-02-02T11:55:52;9.40;99.90
46676;DHT22;32412;51.478;5.694;2023-02-02T11:58:20;9.40;99.90
46676;DHT22;32412;51.478;5.694;2023-02-02T12:00:54;9.40;99.90
46676;DHT22;32412;51.478;5.694;2023-02-02T12:05:49;9.50;99.90
46676;DHT22;32412;51.478;5.694;2023-02-02T12:08:15;9.40;99.90
46676;DHT22;32412;51.478;5.694;2023-02-02T12:11:01;9.40;99.90
46676;DHT22;32412;51.478;5.694;2023-02-02T12:16:51;9.30;99.90
46676;DHT22;32412;51.478;5.694;2023-02-02T12:19:30;9.30;99.90
46676;DHT22;32412;51.478;5.694;2023-02-02T12:25:10;9.40;99.90
46676;DHT22;32412;51.478;5.694;2023-02-02T12:30:42;9.30;99.90
46676;DHT22;32412;51.478;5.694;2023-02-02T12:36:37;9.40;99.90
46676;DHT22;32412;51.478;5.694;2023-02-02T12:44:40;9.50;99.90
46676;DHT22;32412;51.478;5.694;2023-02-02T12:47:37;9.60;99.90
46676;DHT22;32412;51.478;5.694;2023-02-02T12:50:27;9.60;99.90
46676;DHT22;32412;51.478;5.694;2023-02-02T13:00:49;9.60;99.90
46676;DHT22;32412;51.478;5.694;2023-02-02T13:03:35;9.60;99.90
46676;DHT22;32412;51.478;5.694;2023-02-02T13:09:00;9.50;99.90
46676;DHT22;32412;51.478;5.694;2023-02-02T13:11:37;9.50;99.90
46676;DHT22;32412;51.478;5.694;2023-02-02T13:14:13;9.50;99.90
46676;DHT22;32412;51.478;5.694;2023-02-02T13:16:43;9.50;99.90
46676;DHT22;32412;51.478;5.694;2023-02-02T13:22:05;9.50;99.90
46676;DHT22;32412;51.478;5.694;2023-02-02T13:24:35;9.60;99.90
46676;DHT22;32412;51.478;5.694;2023-02-02T13:27:04;9.50;99.90
46676;DHT22;32412;51.478;5.694;2023-02-02T13:32:25;9.60;99.90
46676;DHT22;32412;51.478;5.694;2023-02-02T13:34:56;9.60;99.90
46676;DHT22;32412;51.478;5.694;2023-02-02T13:37:34;9.60;99.90
46676;DHT22;32412;51.478;5.694;2023-02-02T13:42:48;9.70;99.90
46676;DHT22;32412;51.478;5.694;2023-02-02T13:45:41;9.60;99.90
46676;DHT22;32412;51.478;5.694;2023-02-02T13:56:38;9.50;99.90
46676;DHT22;32412;51.478;5.694;2023-02-02T13:59:25;9.50;99.90
46676;DHT22;32412;51.478;5.694;2023-02-02T14:01:56;9.50;99.90
46676;DHT22;32412;51.478;5.694;2023-02-02T14:04:26;9.50;99.90
46676;DHT22;32412;51.478;5.694;2023-02-02T14:09:26;9.40;99.90
46676;DHT22;32412;51.478;5.694;2023-02-02T14:11:56;9.40;99.90
46676;DHT22;32412;51.478;5.694;2023-02-02T14:14:23;9.40;99.90
46676;DHT22;32412;51.478;5.694;2023-02-02T14:19:47;9.40;99.90
46676;DHT22;32412;51.478;5.694;2023-02-02T14:24:42;9.40;99.90
46676;DHT22;32412;51.478;5.694;2023-02-02T14:29:56;9.30;99.90
46676;DHT22;32412;51.478;5.694;2023-02-02T14:34:56;9.20;99.90
46676;DHT22;32412;51.478;5.694;2023-02-02T14:45:39;9.00;99.90
46676;DHT22;32412;51.478;5.694;2023-02-02T14:50:50;8.70;99.90
46676;DHT22;32412;51.478;5.694;2023-02-02T14:53:34;8.70;99.90
46676;DHT22;32412;51.478;5.694;2023-02-02T14:56:12;8.60;99.90
46676;DHT22;32412;51.478;5.694;2023-02-02T14:58:45;8.60;99.90
46676;DHT22;32412;51.478;5.694;2023-02-02T15:17:24;8.30;99.90
46676;DHT22;32412;51.478;5.694;2023-02-02T15:27:50;8.20;99.90
46676;DHT22;32412;51.478;5.694;2023-02-02T15:30:18;8.20;99.90
46676;DHT22;32412;51.478;5.694;2023-02-02T15:32:44;8.20;99.90
46676;DHT22;32412;51.478;5.694;2023-02-02T15:35:18;8.20;99.90
46676;DHT22;32412;51.478;5.694;2023-02-02T15:37:49;8.20;99.90
46676;DHT22;32412;51.478;5.694;2023-02-02T15:40:22;8.20;99.90
46676;DHT22;32412;51.478;5.694;2023-02-02T15:43:03;8.20;99.90
46676;DHT22;32412;51.478;5.694;2023-02-02T15:45:31;8.10;99.90
46676;DHT22;32412;51.478;5.694;2023-02-02T15:48:08;8.10;99.90
46676;DHT22;32412;51.478;5.694;2023-02-02T15:50:43;8.10;99.90
46676;DHT22;32412;51.478;5.694;2023-02-02T15:53:18;8.10;99.90
46676;DHT22;32412;51.478;5.694;2023-02-02T15:55:44;8.10;99.90
46676;DHT22;32412;51.478;5.694;2023-02-02T15:58:31;8.00;99.90
46676;DHT22;32412;51.478;5.694;2023-02-02T16:01:04;8.10;99.90
46676;DHT22;32412;51.478;5.694;2023-02-02T16:03:40;8.00;99.90
46676;DHT22;32412;51.478;5.694;2023-02-02T16:06:07;8.00;99.90
46676;DHT22;32412;51.478;5.694;2023-02-02T16:08:35;8.00;99.90
46676;DHT22;32412;51.478;5.694;2023-02-02T16:11:14;8.00;99.90
46676;DHT22;32412;51.478;5.694;2023-02-02T16:14:04;8.00;99.90
46676;DHT22;32412;51.478;5.694;2023-02-02T16:16:34;8.00;99.90
46676;DHT22;32412;51.478;5.694;2023-02-02T16:24:43;8.00;99.90
46676;DHT22;32412;51.478;5.694;2023-02-02T16:27:14;8.00;99.90
46676;DHT22;32412;51.478;5.694;2023-02-02T16:29:42;7.90;99.90
46676;DHT22;32412;51.478;5.694;2023-02-02T16:32:29;7.90;99.90
46676;DHT22;32412;51.478;5.694;2023-02-02T16:34:55;7.90;99.90
46676;DHT22;32412;51.478;5.694;2023-02-02T16:37:27;7.90;99.90
46676;DHT22;32412;51.478;5.694;2023-02-02T16:39:55;7.90;99.90
46676;DHT22;32412;51.478;5.694;2023-02-02T16:42:26;7.90;99.90
46676;DHT22;32412;51.478;5.694;2023-02-02T16:44:53;7.90;99.90
46676;DHT22;32412;51.478;5.694;2023-02-02T16:52:56;7.90;99.90
46676;DHT22;32412;51.478;5.694;2023-02-02T16:55:22;7.90;99.90
46676;DHT22;32412;51.478;5.694;2023-02-02T16:57:49;7.90;99.90
46676;DHT22;32412;51.478;5.694;2023-02-02T17:00:23;7.90;99.90
46676;DHT22;32412;51.478;5.694;2023-02-02T17:02:52;8.00;99.90
46676;DHT22;32412;51.478;5.694;2023-02-02T17:05:23;8.00;99.90
46676;DHT22;32412;51.478;5.694;2023-02-02T17:07:56;8.00;99.90
46676;DHT22;32412;51.478;5.694;2023-02-02T17:10:27;8.00;99.90
46676;DHT22;32412;51.478;5.694;2023-02-02T17:12:58;8.00;99.90
46676;DHT22;32412;51.478;5.694;2023-02-02T17:15:35;8.00;99.90
46676;DHT22;32412;51.478;5.694;2023-02-02T17:18:02;8.10;99.90
46676;DHT22;32412;51.478;5.694;2023-02-02T17:20:28;8.10;99.90
46676;DHT22;32412;51.478;5.694;2023-02-02T17:23:05;8.10;99.90
46676;DHT22;32412;51.478;5.694;2023-02-02T17:25:36;8.10;99.90
46676;DHT22;32412;51.478;5.694;2023-02-02T17:28:06;8.20;99.90
46676;DHT22;32412;51.478;5.694;2023-02-02T17:30:34;8.20;99.90
46676;DHT22;32412;51.478;5.694;2023-02-02T17:33:00;8.20;99.90
46676;DHT22;32412;51.478;5.694;2023-02-02T17:35:26;8.30;99.90
46676;DHT22;32412;51.478;5.694;2023-02-02T17:37:52;8.30;99.90
46676;DHT22;32412;51.478;5.694;2023-02-02T17:40:21;8.40;99.90
46676;DHT22;32412;51.478;5.694;2023-02-02T17:42:49;8.40;99.90
46676;DHT22;32412;51.478;5.694;2023-02-02T17:45:28;8.40;99.90
46676;DHT22;32412;51.478;5.694;2023-02-02T17:47:54;8.50;99.90
46676;DHT22;32412;51.478;5.694;2023-02-02T17:50:20;8.50;99.90
46676;DHT22;32412;51.478;5.694;2023-02-02T17:52:48;8.50;99.90
46676;DHT22;32412;51.478;5.694;2023-02-02T17:55:21;8.40;99.90
46676;DHT22;32412;51.478;5.694;2023-02-02T17:57:48;8.50;99.90
46676;DHT22;32412;51.478;5.694;2023-02-02T18:00:14;8.40;99.90
46676;DHT22;32412;51.478;5.694;2023-02-02T18:02:40;8.40;99.90
46676;DHT22;32412;51.478;5.694;2023-02-02T18:05:06;8.40;99.90
46676;DHT22;32412;51.478;5.694;2023-02-02T18:07:32;8.40;99.90
46676;DHT22;32412;51.478;5.694;2023-02-02T18:09:59;8.40;99.90
46676;DHT22;32412;51.478;5.694;2023-02-02T18:12:25;8.40;99.90
46676;DHT22;32412;51.478;5.694;2023-02-02T18:14:51;8.40;99.90
46676;DHT22;32412;51.478;5.694;2023-02-02T18:17:16;8.50;99.90
46676;DHT22;32412;51.478;5.694;2023-02-02T18:19:42;8.40;99.90
46676;DHT22;32412;51.478;5.694;2023-02-02T18:22:11;8.50;99.90
46676;DHT22;32412;51.478;5.694;2023-02-02T18:24:38;8.50;99.90
46676;DHT22;32412;51.478;5.694;2023-02-02T18:27:04;8.50;99.90
46676;DHT22;32412;51.478;5.694;2023-02-02T18:29:30;8.50;99.90
46676;DHT22;32412;51.478;5.694;2023-02-02T18:31:57;8.60;99.90
46676;DHT22;32412;51.478;5.694;2023-02-02T18:34:23;8.60;99.90
46676;DHT22;32412;51.478;5.694;2023-02-02T18:36:48;8.50;99.90
46676;DHT22;32412;51.478;5.694;2023-02-02T18:39:14;8.60;99.90
46676;DHT22;32412;51.478;5.694;2023-02-02T18:41:40;8.60;99.90
46676;DHT22;32412;51.478;5.694;2023-02-02T18:44:05;8.60;99.90
46676;DHT22;32412;51.478;5.694;2023-02-02T18:46:32;8.50;99.90
46676;DHT22;32412;51.478;5.694;2023-02-02T18:48:58;8.50;99.90
46676;DHT22;32412;51.478;5.694;2023-02-02T18:51:24;8.40;99.90
46676;DHT22;32412;51.478;5.694;2023-02-02T18:53:50;8.40;99.90
46676;DHT22;32412;51.478;5.694;2023-02-02T18:56:15;8.40;99.90
46676;DHT22;32412;51.478;5.694;2023-02-02T18:58:42;8.40;99.90